Winifred, Kentucky
Current Conditions -  °F | °C
As of 11:15 AM on Monday 22 Dec 2014 (Local Time) from KSJS Reporting Station
Broken Clouds Broken Clouds  
Wind Chill: 52°   Ceiling: 4900
Heat Index: 52°   Visibility: 10mi
Dew Point: 39°   Wind: 7mph
Humidity: 61%   Direction: 160°SSE
Pressure: 30.01"   Gusts: NA
Location:  37.9467°N, 82.8859°W
Report Text: KSJS 221615Z AUTO 16006KT 10SM BKN049 BKN055 11/04 A3001 RMK AO2 T01090037
Loading
Personal Weather Stations






























Interactive Weather Map New forecast layout! Learn more

10-Day Weather Forecast

Advertisements
Track Severe Weather on mobile